sensor_id;sensor_type;location;lat;lon;timestamp;temperature;humidity
49224;DHT22;35050;51.316;5.994;2022-11-23T00:00:25;9.10;99.90
49224;DHT22;35050;51.316;5.994;2022-11-23T00:02:54;9.10;99.90
49224;DHT22;35050;51.316;5.994;2022-11-23T00:05:20;9.10;99.90
49224;DHT22;35050;51.316;5.994;2022-11-23T00:07:46;9.00;99.90
49224;DHT22;35050;51.316;5.994;2022-11-23T00:10:11;9.10;99.90
49224;DHT22;35050;51.316;5.994;2022-11-23T00:12:37;9.10;99.90
49224;DHT22;35050;51.316;5.994;2022-11-23T00:15:04;9.10;99.90
49224;DHT22;35050;51.316;5.994;2022-11-23T00:17:31;9.00;99.90
49224;DHT22;35050;51.316;5.994;2022-11-23T00:19:56;9.10;99.90
49224;DHT22;35050;51.316;5.994;2022-11-23T00:22:22;9.10;99.90
49224;DHT22;35050;51.316;5.994;2022-11-23T00:24:48;9.10;99.90
49224;DHT22;35050;51.316;5.994;2022-11-23T00:27:13;9.10;99.90
49224;DHT22;35050;51.316;5.994;2022-11-23T00:29:39;9.00;99.90
49224;DHT22;35050;51.316;5.994;2022-11-23T00:32:05;9.00;99.90
49224;DHT22;35050;51.316;5.994;2022-11-23T00:34:30;9.00;99.90
49224;DHT22;35050;51.316;5.994;2022-11-23T00:36:56;9.00;99.90
49224;DHT22;35050;51.316;5.994;2022-11-23T00:39:22;9.10;99.90
49224;DHT22;35050;51.316;5.994;2022-11-23T00:41:47;9.10;99.90
49224;DHT22;35050;51.316;5.994;2022-11-23T00:44:13;9.10;99.90
49224;DHT22;35050;51.316;5.994;2022-11-23T00:46:39;9.10;99.90
49224;DHT22;35050;51.316;5.994;2022-11-23T00:49:04;9.10;99.90
49224;DHT22;35050;51.316;5.994;2022-11-23T00:51:33;9.10;99.90
49224;DHT22;35050;51.316;5.994;2022-11-23T00:54:00;9.20;99.90
49224;DHT22;35050;51.316;5.994;2022-11-23T00:56:26;9.20;99.90
49224;DHT22;35050;51.316;5.994;2022-11-23T00:58:53;9.20;99.90
49224;DHT22;35050;51.316;5.994;2022-11-23T01:01:21;9.10;99.90
49224;DHT22;35050;51.316;5.994;2022-11-23T01:03:50;9.10;99.90
49224;DHT22;35050;51.316;5.994;2022-11-23T01:06:22;9.10;99.90
49224;DHT22;35050;51.316;5.994;2022-11-23T01:08:53;9.20;99.90
49224;DHT22;35050;51.316;5.994;2022-11-23T01:11:20;9.20;99.90
49224;DHT22;35050;51.316;5.994;2022-11-23T01:13:47;9.10;99.90
49224;DHT22;35050;51.316;5.994;2022-11-23T01:16:15;9.20;99.90
49224;DHT22;35050;51.316;5.994;2022-11-23T01:18:41;9.10;99.90
49224;DHT22;35050;51.316;5.994;2022-11-23T01:21:07;9.10;99.90
49224;DHT22;35050;51.316;5.994;2022-11-23T01:23:33;9.20;99.90
49224;DHT22;35050;51.316;5.994;2022-11-23T01:26:09;9.20;99.90
49224;DHT22;35050;51.316;5.994;2022-11-23T01:28:38;9.20;99.90
49224;DHT22;35050;51.316;5.994;2022-11-23T01:31:09;9.20;99.90
49224;DHT22;35050;51.316;5.994;2022-11-23T01:33:36;9.20;99.90
49224;DHT22;35050;51.316;5.994;2022-11-23T01:36:13;9.20;99.90
49224;DHT22;35050;51.316;5.994;2022-11-23T01:38:40;9.20;99.90
49224;DHT22;35050;51.316;5.994;2022-11-23T01:41:33;9.30;99.90
49224;DHT22;35050;51.316;5.994;2022-11-23T01:43:59;9.30;99.90
49224;DHT22;35050;51.316;5.994;2022-11-23T01:46:25;9.30;99.90
49224;DHT22;35050;51.316;5.994;2022-11-23T01:49:02;9.20;99.90
49224;DHT22;35050;51.316;5.994;2022-11-23T01:51:32;9.20;99.90
49224;DHT22;35050;51.316;5.994;2022-11-23T01:54:02;9.30;99.90
49224;DHT22;35050;51.316;5.994;2022-11-23T01:56:34;9.20;99.90
49224;DHT22;35050;51.316;5.994;2022-11-23T01:59:04;9.20;99.90
49224;DHT22;35050;51.316;5.994;2022-11-23T02:01:30;9.20;99.90
49224;DHT22;35050;51.316;5.994;2022-11-23T02:03:58;9.30;99.90
49224;DHT22;35050;51.316;5.994;2022-11-23T02:06:25;9.30;99.90
49224;DHT22;35050;51.316;5.994;2022-11-23T02:08:51;9.30;99.90
49224;DHT22;35050;51.316;5.994;2022-11-23T02:11:17;9.30;99.90
49224;DHT22;35050;51.316;5.994;2022-11-23T02:13:46;9.30;99.90
49224;DHT22;35050;51.316;5.994;2022-11-23T02:16:13;9.30;99.90
49224;DHT22;35050;51.316;5.994;2022-11-23T02:18:42;9.40;99.90
49224;DHT22;35050;51.316;5.994;2022-11-23T02:21:08;9.30;99.90
49224;DHT22;35050;51.316;5.994;2022-11-23T02:26:30;9.30;99.90
49224;DHT22;35050;51.316;5.994;2022-11-23T02:29:05;9.40;99.90
49224;DHT22;35050;51.316;5.994;2022-11-23T02:31:32;9.40;99.90
49224;DHT22;35050;51.316;5.994;2022-11-23T02:33:58;9.40;99.90
49224;DHT22;35050;51.316;5.994;2022-11-23T02:36:39;9.40;99.90
49224;DHT22;35050;51.316;5.994;2022-11-23T02:39:11;9.40;99.90
49224;DHT22;35050;51.316;5.994;2022-11-23T02:46:57;9.30;99.90
49224;DHT22;35050;51.316;5.994;2022-11-23T02:49:23;9.40;99.90
49224;DHT22;35050;51.316;5.994;2022-11-23T02:51:49;9.40;99.90
49224;DHT22;35050;51.316;5.994;2022-11-23T02:54:14;9.40;99.90
49224;DHT22;35050;51.316;5.994;2022-11-23T02:56:40;9.40;99.90
49224;DHT22;35050;51.316;5.994;2022-11-23T02:59:06;9.40;99.90
49224;DHT22;35050;51.316;5.994;2022-11-23T03:01:31;9.40;99.90
49224;DHT22;35050;51.316;5.994;2022-11-23T03:03:57;9.40;99.90
49224;DHT22;35050;51.316;5.994;2022-11-23T03:06:23;9.30;99.90
49224;DHT22;35050;51.316;5.994;2022-11-23T03:08:48;9.30;99.90
49224;DHT22;35050;51.316;5.994;2022-11-23T03:11:14;9.40;99.90
49224;DHT22;35050;51.316;5.994;2022-11-23T03:13:40;9.30;99.90
49224;DHT22;35050;51.316;5.994;2022-11-23T03:16:06;9.30;99.90
49224;DHT22;35050;51.316;5.994;2022-11-23T03:18:31;9.30;99.90
49224;DHT22;35050;51.316;5.994;2022-11-23T03:21:04;9.40;99.90
49224;DHT22;35050;51.316;5.994;2022-11-23T03:23:30;9.30;99.90
49224;DHT22;35050;51.316;5.994;2022-11-23T03:25:57;9.40;99.90
49224;DHT22;35050;51.316;5.994;2022-11-23T03:28:22;9.40;99.90
49224;DHT22;35050;51.316;5.994;2022-11-23T03:30:48;9.40;99.90
49224;DHT22;35050;51.316;5.994;2022-11-23T03:33:15;9.40;99.90
49224;DHT22;35050;51.316;5.994;2022-11-23T03:35:40;9.30;99.90
49224;DHT22;35050;51.316;5.994;2022-11-23T03:38:06;9.40;99.90
49224;DHT22;35050;51.316;5.994;2022-11-23T03:40:32;9.40;99.90
49224;DHT22;35050;51.316;5.994;2022-11-23T03:42:57;9.40;99.90
49224;DHT22;35050;51.316;5.994;2022-11-23T03:45:23;9.40;99.90
49224;DHT22;35050;51.316;5.994;2022-11-23T03:47:49;9.40;99.90
49224;DHT22;35050;51.316;5.994;2022-11-23T03:50:14;9.40;99.90
49224;DHT22;35050;51.316;5.994;2022-11-23T03:52:41;9.40;99.90
49224;DHT22;35050;51.316;5.994;2022-11-23T03:55:06;9.40;99.90
49224;DHT22;35050;51.316;5.994;2022-11-23T03:57:32;9.40;99.90
49224;DHT22;35050;51.316;5.994;2022-11-23T03:59:58;9.40;99.90
49224;DHT22;35050;51.316;5.994;2022-11-23T04:02:23;9.40;99.90
49224;DHT22;35050;51.316;5.994;2022-11-23T04:04:49;9.40;99.90
49224;DHT22;35050;51.316;5.994;2022-11-23T04:07:15;9.40;99.90
49224;DHT22;35050;51.316;5.994;2022-11-23T04:09:40;9.30;99.90
49224;DHT22;35050;51.316;5.994;2022-11-23T04:12:07;9.40;99.90
49224;DHT22;35050;51.316;5.994;2022-11-23T04:14:33;9.40;99.90
49224;DHT22;35050;51.316;5.994;2022-11-23T04:16:59;9.40;99.90
49224;DHT22;35050;51.316;5.994;2022-11-23T04:19:26;9.40;99.90
49224;DHT22;35050;51.316;5.994;2022-11-23T04:21:52;9.30;99.90
49224;DHT22;35050;51.316;5.994;2022-11-23T04:24:17;9.40;99.90
49224;DHT22;35050;51.316;5.994;2022-11-23T04:26:43;9.40;99.90
49224;DHT22;35050;51.316;5.994;2022-11-23T04:29:08;9.40;99.90
49224;DHT22;35050;51.316;5.994;2022-11-23T04:31:34;9.40;99.90
49224;DHT22;35050;51.316;5.994;2022-11-23T04:34:00;9.40;99.90
49224;DHT22;35050;51.316;5.994;2022-11-23T04:36:25;9.40;99.90
49224;DHT22;35050;51.316;5.994;2022-11-23T04:38:52;9.30;99.90
49224;DHT22;35050;51.316;5.994;2022-11-23T04:41:17;9.30;99.90
49224;DHT22;35050;51.316;5.994;2022-11-23T04:43:43;9.30;99.90
49224;DHT22;35050;51.316;5.994;2022-11-23T04:46:12;9.30;99.90
49224;DHT22;35050;51.316;5.994;2022-11-23T04:48:38;9.30;99.90
49224;DHT22;35050;51.316;5.994;2022-11-23T04:51:04;9.30;99.90
49224;DHT22;35050;51.316;5.994;2022-11-23T04:53:30;9.30;99.90
49224;DHT22;35050;51.316;5.994;2022-11-23T04:55:56;9.30;99.90
49224;DHT22;35050;51.316;5.994;2022-11-23T04:58:21;9.40;99.90
49224;DHT22;35050;51.316;5.994;2022-11-23T05:00:47;9.30;99.90
49224;DHT22;35050;51.316;5.994;2022-11-23T05:03:12;9.30;99.90
49224;DHT22;35050;51.316;5.994;2022-11-23T05:05:39;9.30;99.90
49224;DHT22;35050;51.316;5.994;2022-11-23T05:08:05;9.30;99.90
49224;DHT22;35050;51.316;5.994;2022-11-23T05:10:31;9.30;99.90
49224;DHT22;35050;51.316;5.994;2022-11-23T05:12:57;9.30;99.90
49224;DHT22;35050;51.316;5.994;2022-11-23T05:15:22;9.30;99.90
49224;DHT22;35050;51.316;5.994;2022-11-23T05:17:48;9.30;99.90
49224;DHT22;35050;51.316;5.994;2022-11-23T05:20:14;9.30;99.90
49224;DHT22;35050;51.316;5.994;2022-11-23T05:22:40;9.30;99.90
49224;DHT22;35050;51.316;5.994;2022-11-23T05:25:06;9.30;99.90
49224;DHT22;35050;51.316;5.994;2022-11-23T05:27:32;9.20;99.90
49224;DHT22;35050;51.316;5.994;2022-11-23T05:29:58;9.20;99.90
49224;DHT22;35050;51.316;5.994;2022-11-23T05:32:23;9.20;99.90
49224;DHT22;35050;51.316;5.994;2022-11-23T05:34:49;9.20;99.90
49224;DHT22;35050;51.316;5.994;2022-11-23T05:37:15;9.10;99.90
49224;DHT22;35050;51.316;5.994;2022-11-23T05:39:40;9.10;99.90
49224;DHT22;35050;51.316;5.994;2022-11-23T05:42:06;9.20;99.90
49224;DHT22;35050;51.316;5.994;2022-11-23T05:44:32;9.20;99.90
49224;DHT22;35050;51.316;5.994;2022-11-23T05:46:58;9.30;99.90
49224;DHT22;35050;51.316;5.994;2022-11-23T05:49:23;9.30;99.90
49224;DHT22;35050;51.316;5.994;2022-11-23T05:51:49;9.30;99.90
49224;DHT22;35050;51.316;5.994;2022-11-23T05:54:15;9.30;99.90
49224;DHT22;35050;51.316;5.994;2022-11-23T05:56:40;9.20;99.90
49224;DHT22;35050;51.316;5.994;2022-11-23T05:59:06;9.20;99.90
49224;DHT22;35050;51.316;5.994;2022-11-23T06:01:32;9.20;99.90
49224;DHT22;35050;51.316;5.994;2022-11-23T06:03:58;9.20;99.90
49224;DHT22;35050;51.316;5.994;2022-11-23T06:06:24;9.10;99.90
49224;DHT22;35050;51.316;5.994;2022-11-23T06:08:49;9.10;99.90
49224;DHT22;35050;51.316;5.994;2022-11-23T06:11:15;9.10;99.90
49224;DHT22;35050;51.316;5.994;2022-11-23T06:13:41;9.10;99.90
49224;DHT22;35050;51.316;5.994;2022-11-23T06:16:07;9.10;99.90
49224;DHT22;35050;51.316;5.994;2022-11-23T06:18:32;9.20;99.90
49224;DHT22;35050;51.316;5.994;2022-11-23T06:20:59;9.10;99.90
49224;DHT22;35050;51.316;5.994;2022-11-23T06:23:25;9.10;99.90
49224;DHT22;35050;51.316;5.994;2022-11-23T06:25:51;9.20;99.90
49224;DHT22;35050;51.316;5.994;2022-11-23T06:28:17;9.20;99.90
49224;DHT22;35050;51.316;5.994;2022-11-23T06:30:42;9.10;99.90
49224;DHT22;35050;51.316;5.994;2022-11-23T06:33:08;9.20;99.90
49224;DHT22;35050;51.316;5.994;2022-11-23T06:35:34;9.10;99.90
49224;DHT22;35050;51.316;5.994;2022-11-23T06:37:59;9.20;99.90
49224;DHT22;35050;51.316;5.994;2022-11-23T06:40:25;9.20;99.90
49224;DHT22;35050;51.316;5.994;2022-11-23T06:42:51;9.20;99.90
49224;DHT22;35050;51.316;5.994;2022-11-23T06:45:21;9.20;99.90
49224;DHT22;35050;51.316;5.994;2022-11-23T06:47:47;9.20;99.90
49224;DHT22;35050;51.316;5.994;2022-11-23T06:50:13;9.10;99.90
49224;DHT22;35050;51.316;5.994;2022-11-23T06:52:39;9.10;99.90
49224;DHT22;35050;51.316;5.994;2022-11-23T06:55:04;9.10;99.90
49224;DHT22;35050;51.316;5.994;2022-11-23T06:57:31;9.10;99.90
49224;DHT22;35050;51.316;5.994;2022-11-23T06:59:56;9.20;99.90
49224;DHT22;35050;51.316;5.994;2022-11-23T07:02:22;9.10;99.90
49224;DHT22;35050;51.316;5.994;2022-11-23T07:04:50;9.10;99.90
49224;DHT22;35050;51.316;5.994;2022-11-23T07:07:16;9.10;99.90
49224;DHT22;35050;51.316;5.994;2022-11-23T07:09:42;9.10;99.90
49224;DHT22;35050;51.316;5.994;2022-11-23T07:12:08;9.10;99.90
49224;DHT22;35050;51.316;5.994;2022-11-23T07:14:33;9.00;99.90
49224;DHT22;35050;51.316;5.994;2022-11-23T07:16:59;9.00;99.90
49224;DHT22;35050;51.316;5.994;2022-11-23T07:19:24;9.10;99.90
49224;DHT22;35050;51.316;5.994;2022-11-23T07:21:50;9.00;99.90
49224;DHT22;35050;51.316;5.994;2022-11-23T07:24:16;8.90;99.90
49224;DHT22;35050;51.316;5.994;2022-11-23T07:26:41;8.90;99.90
49224;DHT22;35050;51.316;5.994;2022-11-23T07:29:07;8.90;99.90
49224;DHT22;35050;51.316;5.994;2022-11-23T07:31:32;8.80;99.90
49224;DHT22;35050;51.316;5.994;2022-11-23T07:33:58;8.80;99.90
49224;DHT22;35050;51.316;5.994;2022-11-23T07:36:24;8.80;99.90
49224;DHT22;35050;51.316;5.994;2022-11-23T07:38:49;8.70;99.90
49224;DHT22;35050;51.316;5.994;2022-11-23T07:41:15;8.60;99.90
49224;DHT22;35050;51.316;5.994;2022-11-23T07:43:40;8.80;99.90
49224;DHT22;35050;51.316;5.994;2022-11-23T07:46:06;8.90;99.90
49224;DHT22;35050;51.316;5.994;2022-11-23T07:48:32;8.80;99.90
49224;DHT22;35050;51.316;5.994;2022-11-23T07:50:57;8.70;99.90
49224;DHT22;35050;51.316;5.994;2022-11-23T07:53:23;8.70;99.90
49224;DHT22;35050;51.316;5.994;2022-11-23T07:55:48;8.70;99.90
49224;DHT22;35050;51.316;5.994;2022-11-23T07:58:14;8.80;99.90
49224;DHT22;35050;51.316;5.994;2022-11-23T08:00:40;8.70;99.90
49224;DHT22;35050;51.316;5.994;2022-11-23T08:03:05;9.20;99.90
49224;DHT22;35050;51.316;5.994;2022-11-23T08:05:32;9.00;99.90
49224;DHT22;35050;51.316;5.994;2022-11-23T08:08:01;8.90;99.90
49224;DHT22;35050;51.316;5.994;2022-11-23T08:10:28;8.90;99.90
49224;DHT22;35050;51.316;5.994;2022-11-23T08:12:56;8.80;99.90
49224;DHT22;35050;51.316;5.994;2022-11-23T08:15:22;8.80;99.90
49224;DHT22;35050;51.316;5.994;2022-11-23T08:17:48;8.90;99.90
49224;DHT22;35050;51.316;5.994;2022-11-23T08:20:18;9.00;99.90
49224;DHT22;35050;51.316;5.994;2022-11-23T08:22:43;9.00;99.90
49224;DHT22;35050;51.316;5.994;2022-11-23T08:25:09;8.90;99.90
49224;DHT22;35050;51.316;5.994;2022-11-23T08:27:34;9.00;99.90
49224;DHT22;35050;51.316;5.994;2022-11-23T08:30:00;8.90;99.90
49224;DHT22;35050;51.316;5.994;2022-11-23T08:32:26;9.00;99.90
49224;DHT22;35050;51.316;5.994;2022-11-23T08:34:51;8.90;99.90
49224;DHT22;35050;51.316;5.994;2022-11-23T08:37:17;8.90;99.90
49224;DHT22;35050;51.316;5.994;2022-11-23T08:39:42;8.80;99.90
49224;DHT22;35050;51.316;5.994;2022-11-23T08:42:08;8.90;99.90
49224;DHT22;35050;51.316;5.994;2022-11-23T08:44:34;8.80;99.90
49224;DHT22;35050;51.316;5.994;2022-11-23T08:46:59;8.90;99.90
49224;DHT22;35050;51.316;5.994;2022-11-23T08:49:25;8.90;99.90
49224;DHT22;35050;51.316;5.994;2022-11-23T08:51:51;8.90;99.90
49224;DHT22;35050;51.316;5.994;2022-11-23T08:54:16;8.90;99.90
49224;DHT22;35050;51.316;5.994;2022-11-23T08:56:42;8.90;99.90
49224;DHT22;35050;51.316;5.994;2022-11-23T08:59:08;8.90;99.90
49224;DHT22;35050;51.316;5.994;2022-11-23T09:01:33;9.00;99.90
49224;DHT22;35050;51.316;5.994;2022-11-23T09:03:59;9.00;99.90
49224;DHT22;35050;51.316;5.994;2022-11-23T09:06:26;9.00;99.90
49224;DHT22;35050;51.316;5.994;2022-11-23T09:08:54;9.00;99.90
49224;DHT22;35050;51.316;5.994;2022-11-23T09:11:20;9.00;99.90
49224;DHT22;35050;51.316;5.994;2022-11-23T09:13:45;9.10;99.90
49224;DHT22;35050;51.316;5.994;2022-11-23T09:16:11;9.00;99.90
49224;DHT22;35050;51.316;5.994;2022-11-23T09:18:36;9.10;99.90
49224;DHT22;35050;51.316;5.994;2022-11-23T09:21:04;9.10;99.90
49224;DHT22;35050;51.316;5.994;2022-11-23T09:23:30;9.20;99.90
49224;DHT22;35050;51.316;5.994;2022-11-23T09:25:59;9.20;99.90
49224;DHT22;35050;51.316;5.994;2022-11-23T09:28:25;9.20;99.90
49224;DHT22;35050;51.316;5.994;2022-11-23T09:30:53;9.20;99.90
49224;DHT22;35050;51.316;5.994;2022-11-23T09:33:20;9.20;99.90
49224;DHT22;35050;51.316;5.994;2022-11-23T09:35:46;9.30;99.90
49224;DHT22;35050;51.316;5.994;2022-11-23T09:38:12;9.30;99.90
49224;DHT22;35050;51.316;5.994;2022-11-23T09:40:39;9.30;99.90
49224;DHT22;35050;51.316;5.994;2022-11-23T09:43:27;9.30;99.90
49224;DHT22;35050;51.316;5.994;2022-11-23T09:46:09;9.40;99.90
49224;DHT22;35050;51.316;5.994;2022-11-23T09:51:19;9.40;99.90
49224;DHT22;35050;51.316;5.994;2022-11-23T09:53:59;9.40;99.90
49224;DHT22;35050;51.316;5.994;2022-11-23T09:56:32;9.40;99.90
49224;DHT22;35050;51.316;5.994;2022-11-23T09:59:01;9.40;99.90
49224;DHT22;35050;51.316;5.994;2022-11-23T10:01:28;9.50;99.90
49224;DHT22;35050;51.316;5.994;2022-11-23T10:03:55;9.50;99.90
49224;DHT22;35050;51.316;5.994;2022-11-23T10:06:28;9.50;99.90
49224;DHT22;35050;51.316;5.994;2022-11-23T10:09:20;9.50;99.90
49224;DHT22;35050;51.316;5.994;2022-11-23T10:18:03;9.80;99.90
49224;DHT22;35050;51.316;5.994;2022-11-23T10:25:49;9.80;99.90
49224;DHT22;35050;51.316;5.994;2022-11-23T10:28:20;9.90;99.90
49224;DHT22;35050;51.316;5.994;2022-11-23T10:33:38;10.00;99.90
49224;DHT22;35050;51.316;5.994;2022-11-23T10:36:09;10.00;99.90
49224;DHT22;35050;51.316;5.994;2022-11-23T10:38:35;10.00;99.90
49224;DHT22;35050;51.316;5.994;2022-11-23T10:41:12;10.00;99.90
49224;DHT22;35050;51.316;5.994;2022-11-23T10:43:42;10.00;99.90
49224;DHT22;35050;51.316;5.994;2022-11-23T10:46:30;10.10;99.90
49224;DHT22;35050;51.316;5.994;2022-11-23T10:49:14;10.10;99.90
49224;DHT22;35050;51.316;5.994;2022-11-23T10:51:51;10.10;99.90
49224;DHT22;35050;51.316;5.994;2022-11-23T10:54:31;10.20;99.90
49224;DHT22;35050;51.316;5.994;2022-11-23T10:57:01;10.20;99.90
49224;DHT22;35050;51.316;5.994;2022-11-23T10:59:28;10.40;99.90
49224;DHT22;35050;51.316;5.994;2022-11-23T11:02:12;10.60;99.90
49224;DHT22;35050;51.316;5.994;2022-11-23T11:04:39;10.80;99.90
49224;DHT22;35050;51.316;5.994;2022-11-23T11:09:50;10.80;99.90
49224;DHT22;35050;51.316;5.994;2022-11-23T11:12:17;10.80;99.90
49224;DHT22;35050;51.316;5.994;2022-11-23T11:15:02;10.90;99.90
49224;DHT22;35050;51.316;5.994;2022-11-23T11:17:33;11.40;99.90
49224;DHT22;35050;51.316;5.994;2022-11-23T11:20:29;11.30;99.90
49224;DHT22;35050;51.316;5.994;2022-11-23T11:23:01;11.60;99.90
49224;DHT22;35050;51.316;5.994;2022-11-23T11:25:38;11.80;99.90
49224;DHT22;35050;51.316;5.994;2022-11-23T11:28:05;11.60;99.90
49224;DHT22;35050;51.316;5.994;2022-11-23T11:30:53;11.20;99.90
49224;DHT22;35050;51.316;5.994;2022-11-23T11:33:32;11.50;99.90
49224;DHT22;35050;51.316;5.994;2022-11-23T11:36:02;11.30;99.90
49224;DHT22;35050;51.316;5.994;2022-11-23T11:38:36;11.10;99.90
49224;DHT22;35050;51.316;5.994;2022-11-23T11:41:07;11.10;99.90
49224;DHT22;35050;51.316;5.994;2022-11-23T11:43:43;11.70;99.90
49224;DHT22;35050;51.316;5.994;2022-11-23T11:46:21;11.50;99.90
49224;DHT22;35050;51.316;5.994;2022-11-23T11:48:53;11.20;99.90
49224;DHT22;35050;51.316;5.994;2022-11-23T11:51:35;11.10;99.90
49224;DHT22;35050;51.316;5.994;2022-11-23T11:56:51;11.00;99.90
49224;DHT22;35050;51.316;5.994;2022-11-23T12:07:23;11.10;99.90
49224;DHT22;35050;51.316;5.994;2022-11-23T12:09:56;11.20;99.90
49224;DHT22;35050;51.316;5.994;2022-11-23T12:12:24;11.10;99.90
49224;DHT22;35050;51.316;5.994;2022-11-23T12:14:50;11.20;99.90
49224;DHT22;35050;51.316;5.994;2022-11-23T12:25:40;11.40;99.90
49224;DHT22;35050;51.316;5.994;2022-11-23T12:28:27;11.30;99.90
49224;DHT22;35050;51.316;5.994;2022-11-23T12:31:18;11.50;99.90
49224;DHT22;35050;51.316;5.994;2022-11-23T12:42:07;11.70;99.90
49224;DHT22;35050;51.316;5.994;2022-11-23T12:58:22;11.00;99.90
49224;DHT22;35050;51.316;5.994;2022-11-23T13:09:10;11.10;99.90
49224;DHT22;35050;51.316;5.994;2022-11-23T13:22:19;11.00;99.90
49224;DHT22;35050;51.316;5.994;2022-11-23T13:25:03;11.00;99.90
49224;DHT22;35050;51.316;5.994;2022-11-23T13:30:27;10.90;99.90
49224;DHT22;35050;51.316;5.994;2022-11-23T13:40:38;11.00;99.90
49224;DHT22;35050;51.316;5.994;2022-11-23T13:45:44;11.00;99.90
49224;DHT22;35050;51.316;5.994;2022-11-23T13:50:37;10.90;99.90
49224;DHT22;35050;51.316;5.994;2022-11-23T13:55:49;10.90;99.90
49224;DHT22;35050;51.316;5.994;2022-11-23T14:00:54;10.90;99.90
49224;DHT22;35050;51.316;5.994;2022-11-23T14:09:18;10.90;99.90
49224;DHT22;35050;51.316;5.994;2022-11-23T14:20:16;10.80;99.90
49224;DHT22;35050;51.316;5.994;2022-11-23T14:25:28;10.80;99.90
49224;DHT22;35050;51.316;5.994;2022-11-23T14:33:37;10.60;99.90
49224;DHT22;35050;51.316;5.994;2022-11-23T14:41:29;10.00;99.90
49224;DHT22;35050;51.316;5.994;2022-11-23T14:43:59;9.90;99.90
49224;DHT22;35050;51.316;5.994;2022-11-23T14:46:25;9.90;99.90
49224;DHT22;35050;51.316;5.994;2022-11-23T14:48:51;9.90;99.90
49224;DHT22;35050;51.316;5.994;2022-11-23T14:51:27;9.70;99.90
49224;DHT22;35050;51.316;5.994;2022-11-23T14:53:55;9.60;99.90
49224;DHT22;35050;51.316;5.994;2022-11-23T14:58:56;9.70;99.90
49224;DHT22;35050;51.316;5.994;2022-11-23T15:01:24;9.60;99.90
49224;DHT22;35050;51.316;5.994;2022-11-23T15:03:58;9.60;99.90
49224;DHT22;35050;51.316;5.994;2022-11-23T15:06:32;9.60;99.90
49224;DHT22;35050;51.316;5.994;2022-11-23T15:11:31;9.50;99.90
49224;DHT22;35050;51.316;5.994;2022-11-23T15:13:58;9.50;99.90
49224;DHT22;35050;51.316;5.994;2022-11-23T15:16:27;9.50;99.90
49224;DHT22;35050;51.316;5.994;2022-11-23T15:18:53;9.70;99.90
49224;DHT22;35050;51.316;5.994;2022-11-23T15:21:24;9.70;99.90
49224;DHT22;35050;51.316;5.994;2022-11-23T15:23:52;9.80;99.90
49224;DHT22;35050;51.316;5.994;2022-11-23T15:26:30;9.70;99.90
49224;DHT22;35050;51.316;5.994;2022-11-23T15:28:56;9.80;99.90
49224;DHT22;35050;51.316;5.994;2022-11-23T15:31:35;9.60;99.90
49224;DHT22;35050;51.316;5.994;2022-11-23T15:34:11;9.70;99.90
49224;DHT22;35050;51.316;5.994;2022-11-23T15:36:38;9.60;99.90
49224;DHT22;35050;51.316;5.994;2022-11-23T15:39:05;9.50;99.90
49224;DHT22;35050;51.316;5.994;2022-11-23T15:41:35;9.40;99.90
49224;DHT22;35050;51.316;5.994;2022-11-23T15:44:24;9.40;99.90
49224;DHT22;35050;51.316;5.994;2022-11-23T15:46:58;9.40;99.90
49224;DHT22;35050;51.316;5.994;2022-11-23T15:49:24;9.20;99.90
49224;DHT22;35050;51.316;5.994;2022-11-23T15:51:50;9.30;99.90
49224;DHT22;35050;51.316;5.994;2022-11-23T15:54:21;10.50;99.90
49224;DHT22;35050;51.316;5.994;2022-11-23T15:56:49;10.20;99.90
49224;DHT22;35050;51.316;5.994;2022-11-23T16:01:45;9.60;99.90
49224;DHT22;35050;51.316;5.994;2022-11-23T16:06:51;9.40;99.90
49224;DHT22;35050;51.316;5.994;2022-11-23T16:09:38;9.40;99.90
49224;DHT22;35050;51.316;5.994;2022-11-23T16:12:29;9.50;99.90
49224;DHT22;35050;51.316;5.994;2022-11-23T16:14:57;9.50;99.90
49224;DHT22;35050;51.316;5.994;2022-11-23T16:17:27;9.40;99.90
49224;DHT22;35050;51.316;5.994;2022-11-23T16:19:58;9.40;99.90
49224;DHT22;35050;51.316;5.994;2022-11-23T16:22:29;9.30;99.90
49224;DHT22;35050;51.316;5.994;2022-11-23T16:25:05;9.10;99.90
49224;DHT22;35050;51.316;5.994;2022-11-23T16:27:32;9.10;99.90
49224;DHT22;35050;51.316;5.994;2022-11-23T16:29:58;9.00;99.90
49224;DHT22;35050;51.316;5.994;2022-11-23T16:32:27;9.10;99.90
49224;DHT22;35050;51.316;5.994;2022-11-23T16:34:54;9.20;99.90
49224;DHT22;35050;51.316;5.994;2022-11-23T16:37:21;9.30;99.90
49224;DHT22;35050;51.316;5.994;2022-11-23T16:39:47;9.80;99.90
49224;DHT22;35050;51.316;5.994;2022-11-23T16:42:14;9.40;99.90
49224;DHT22;35050;51.316;5.994;2022-11-23T16:44:40;9.20;99.90
49224;DHT22;35050;51.316;5.994;2022-11-23T16:47:23;9.10;99.90
49224;DHT22;35050;51.316;5.994;2022-11-23T16:49:49;9.10;99.90
49224;DHT22;35050;51.316;5.994;2022-11-23T16:52:16;9.00;99.90
49224;DHT22;35050;51.316;5.994;2022-11-23T16:54:42;9.00;99.90
49224;DHT22;35050;51.316;5.994;2022-11-23T16:59:52;8.90;99.90
49224;DHT22;35050;51.316;5.994;2022-11-23T17:02:18;8.80;99.90
49224;DHT22;35050;51.316;5.994;2022-11-23T17:04:44;8.90;99.90
49224;DHT22;35050;51.316;5.994;2022-11-23T17:07:10;9.00;99.90
49224;DHT22;35050;51.316;5.994;2022-11-23T17:09:35;8.90;99.90
49224;DHT22;35050;51.316;5.994;2022-11-23T17:12:01;8.80;99.90
49224;DHT22;35050;51.316;5.994;2022-11-23T17:14:27;8.80;99.90
49224;DHT22;35050;51.316;5.994;2022-11-23T17:16:53;8.80;99.90
49224;DHT22;35050;51.316;5.994;2022-11-23T17:19:20;8.80;99.90
49224;DHT22;35050;51.316;5.994;2022-11-23T17:21:46;8.90;99.90
49224;DHT22;35050;51.316;5.994;2022-11-23T17:24:12;8.90;99.90
49224;DHT22;35050;51.316;5.994;2022-11-23T17:26:41;8.80;99.90
49224;DHT22;35050;51.316;5.994;2022-11-23T17:29:13;8.90;99.90
49224;DHT22;35050;51.316;5.994;2022-11-23T17:31:40;8.90;99.90
49224;DHT22;35050;51.316;5.994;2022-11-23T17:34:13;8.80;99.90
49224;DHT22;35050;51.316;5.994;2022-11-23T17:36:40;8.80;99.90
49224;DHT22;35050;51.316;5.994;2022-11-23T17:39:06;8.80;99.90
49224;DHT22;35050;51.316;5.994;2022-11-23T17:41:32;8.90;99.90
49224;DHT22;35050;51.316;5.994;2022-11-23T17:43:58;8.90;99.90
49224;DHT22;35050;51.316;5.994;2022-11-23T17:46:25;8.90;99.90
49224;DHT22;35050;51.316;5.994;2022-11-23T17:48:56;8.90;99.90
49224;DHT22;35050;51.316;5.994;2022-11-23T17:51:22;8.90;99.90
49224;DHT22;35050;51.316;5.994;2022-11-23T17:53:48;8.90;99.90
49224;DHT22;35050;51.316;5.994;2022-11-23T17:56:19;9.00;99.90
49224;DHT22;35050;51.316;5.994;2022-11-23T17:58:45;9.10;99.90
49224;DHT22;35050;51.316;5.994;2022-11-23T18:01:15;9.00;99.90
49224;DHT22;35050;51.316;5.994;2022-11-23T18:03:43;9.00;99.90
49224;DHT22;35050;51.316;5.994;2022-11-23T18:06:21;9.00;99.90
49224;DHT22;35050;51.316;5.994;2022-11-23T18:08:47;9.00;99.90
49224;DHT22;35050;51.316;5.994;2022-11-23T18:11:14;10.60;99.90
49224;DHT22;35050;51.316;5.994;2022-11-23T18:13:40;9.70;99.90
49224;DHT22;35050;51.316;5.994;2022-11-23T18:16:07;9.30;99.90
49224;DHT22;35050;51.316;5.994;2022-11-23T18:18:33;9.20;99.90
49224;DHT22;35050;51.316;5.994;2022-11-23T18:20:59;9.10;99.90